createdAt,value
2022-12-08T00:00:20.010Z,97939.31
2022-12-08T00:02:46.604Z,97936.38
2022-12-08T00:05:31.692Z,97931.31
2022-12-08T00:08:16.890Z,97929.91
2022-12-08T00:10:49.279Z,97927.25
2022-12-08T00:13:16.068Z,97932.22
2022-12-08T00:15:42.551Z,97931.38
2022-12-08T00:18:09.181Z,97919.63
2022-12-08T00:20:35.682Z,97925.16
2022-12-08T00:23:04.228Z,97924.31
2022-12-08T00:25:31.541Z,97918.25
2022-12-08T00:27:58.085Z,97917.31
2022-12-08T00:30:24.620Z,97904.00
2022-12-08T00:32:51.126Z,97907.94
2022-12-08T00:35:17.655Z,97908.19
2022-12-08T00:37:44.153Z,97904.25
2022-12-08T00:40:10.846Z,97900.56
2022-12-08T00:42:37.343Z,97899.97
2022-12-08T00:45:03.945Z,97899.50
2022-12-08T00:47:30.446Z,97899.97
2022-12-08T00:49:57.068Z,97899.16
2022-12-08T00:52:23.590Z,97898.06
2022-12-08T00:54:50.077Z,97899.13
2022-12-08T00:57:16.656Z,97896.59
2022-12-08T00:59:43.169Z,97897.50
2022-12-08T01:02:09.674Z,97892.66
2022-12-08T01:04:36.183Z,97887.66
2022-12-08T01:07:02.705Z,97888.91
2022-12-08T01:09:29.225Z,97887.91
2022-12-08T01:11:55.745Z,97879.63
2022-12-08T01:14:22.280Z,97893.41
2022-12-08T01:16:48.903Z,97889.66
2022-12-08T01:19:15.769Z,97898.72
2022-12-08T01:21:42.455Z,97899.31
2022-12-08T01:24:12.802Z,97895.84
2022-12-08T01:26:39.282Z,97898.88
2022-12-08T01:29:05.985Z,97892.16
2022-12-08T01:31:32.568Z,97908.09
2022-12-08T01:33:59.081Z,97908.13
2022-12-08T01:36:29.168Z,97906.66
2022-12-08T01:38:56.919Z,97908.03
2022-12-08T01:41:24.351Z,97907.41
2022-12-08T01:43:56.763Z,97901.06
2022-12-08T01:46:23.573Z,97902.63
2022-12-08T01:48:50.875Z,97897.00
2022-12-08T01:51:17.398Z,97891.91
2022-12-08T01:53:43.954Z,97894.00
2022-12-08T01:56:15.766Z,97880.88
2022-12-08T01:58:43.922Z,97882.31
2022-12-08T02:01:10.632Z,97882.53
2022-12-08T02:03:39.513Z,97887.88
2022-12-08T02:06:06.156Z,97878.00
2022-12-08T02:08:32.669Z,97880.06
2022-12-08T02:10:59.188Z,97878.16
2022-12-08T02:13:25.698Z,97871.44
2022-12-08T02:15:55.437Z,97859.53
2022-12-08T02:18:37.054Z,97859.94
2022-12-08T02:21:07.624Z,97863.19
2022-12-08T02:23:36.782Z,97862.59
2022-12-08T02:26:06.344Z,97859.25
2022-12-08T02:28:35.620Z,97854.97
2022-12-08T02:31:14.132Z,97853.09
2022-12-08T02:33:59.315Z,97849.66
2022-12-08T02:36:27.412Z,97846.75
2022-12-08T02:38:53.852Z,97841.41
2022-12-08T02:41:29.236Z,97847.03
2022-12-08T02:44:04.153Z,97852.78
2022-12-08T02:46:38.736Z,97846.97
2022-12-08T02:49:05.280Z,97844.03
2022-12-08T02:51:31.856Z,97849.75
2022-12-08T02:53:58.344Z,97847.16
2022-12-08T02:56:43.538Z,97839.91
2022-12-08T02:59:15.917Z,97847.38
2022-12-08T03:01:45.875Z,97832.50
2022-12-08T03:04:27.737Z,97833.53
2022-12-08T03:06:59.358Z,97831.75
2022-12-08T03:09:31.862Z,97831.53
2022-12-08T03:12:13.028Z,97833.31
2022-12-08T03:14:40.549Z,97832.28
2022-12-08T03:17:07.044Z,97828.44
2022-12-08T03:19:37.593Z,97824.06
2022-12-08T03:22:04.810Z,97815.19
2022-12-08T03:24:31.839Z,97810.94
2022-12-08T03:27:06.408Z,97809.16
2022-12-08T03:29:32.902Z,97807.28
2022-12-08T03:32:01.444Z,97810.72
2022-12-08T03:34:28.478Z,97801.03
2022-12-08T03:36:55.058Z,97798.44
2022-12-08T03:39:21.642Z,97807.19
2022-12-08T03:41:48.218Z,97804.47
2022-12-08T03:44:14.729Z,97804.47
2022-12-08T03:46:41.443Z,97795.44
2022-12-08T03:49:07.938Z,97794.72
2022-12-08T03:51:34.468Z,97794.94
2022-12-08T03:54:00.958Z,97789.31
2022-12-08T03:56:27.435Z,97788.16
2022-12-08T03:58:53.972Z,97776.50
2022-12-08T04:01:20.827Z,97782.66
2022-12-08T04:03:47.394Z,97774.53
2022-12-08T04:06:13.934Z,97777.69
2022-12-08T04:08:40.442Z,97772.88
2022-12-08T04:11:06.948Z,97771.22
2022-12-08T04:13:34.301Z,97772.47
2022-12-08T04:16:00.933Z,97774.44
2022-12-08T04:18:27.485Z,97773.63
2022-12-08T04:20:54.015Z,97768.81
2022-12-08T04:23:20.526Z,97765.38
2022-12-08T04:25:47.015Z,97768.72
2022-12-08T04:28:13.646Z,97763.44
2022-12-08T04:30:40.286Z,97771.97
2022-12-08T04:33:06.856Z,97774.34
2022-12-08T04:35:33.320Z,97772.38
2022-12-08T04:37:59.793Z,97775.78
2022-12-08T04:40:26.301Z,97772.50
2022-12-08T04:42:52.810Z,97768.50
2022-12-08T04:45:19.324Z,97766.78
2022-12-08T04:47:45.917Z,97771.16
2022-12-08T04:50:13.238Z,97761.28
2022-12-08T04:52:39.807Z,97756.97
2022-12-08T04:55:06.386Z,97756.16
2022-12-08T04:57:32.885Z,97752.59
2022-12-08T04:59:59.366Z,97761.56
2022-12-08T05:02:25.920Z,97755.13
2022-12-08T05:04:52.456Z,97754.00
2022-12-08T05:07:19.046Z,97755.63
2022-12-08T05:09:45.578Z,97747.00
2022-12-08T05:12:12.053Z,97754.91
2022-12-08T05:14:38.587Z,97753.78
2022-12-08T05:17:09.508Z,97747.22
2022-12-08T05:19:36.474Z,97745.03
2022-12-08T05:22:02.951Z,97750.34
2022-12-08T05:24:29.761Z,97740.47
2022-12-08T05:26:56.237Z,97748.06
2022-12-08T05:29:22.721Z,97745.53
2022-12-08T05:31:49.364Z,97751.47
2022-12-08T05:34:15.958Z,97747.97
2022-12-08T05:36:42.451Z,97740.47
2022-12-08T05:39:09.792Z,97749.00
2022-12-08T05:41:36.298Z,97750.97
2022-12-08T05:44:02.823Z,97751.91
2022-12-08T05:46:29.529Z,97748.69
2022-12-08T05:48:56.066Z,97744.63
2022-12-08T05:51:23.370Z,97750.88
2022-12-08T05:53:50.350Z,97745.38
2022-12-08T05:56:17.114Z,97748.34
2022-12-08T05:58:43.665Z,97742.75
2022-12-08T06:01:27.533Z,97742.53
2022-12-08T06:03:54.332Z,97735.88
2022-12-08T06:06:21.186Z,97733.19
2022-12-08T06:08:47.720Z,97736.53
2022-12-08T06:11:17.770Z,97740.97
2022-12-08T06:13:44.265Z,97742.53
2022-12-08T06:16:10.831Z,97738.91
2022-12-08T06:18:37.429Z,97740.47
2022-12-08T06:21:04.676Z,97740.66
2022-12-08T06:23:31.167Z,97739.63
2022-12-08T06:26:01.898Z,97737.03
2022-12-08T06:28:29.062Z,97740.56
2022-12-08T06:30:55.543Z,97737.53
2022-12-08T06:33:22.023Z,97738.28
2022-12-08T06:35:48.522Z,97736.78
2022-12-08T06:38:15.093Z,97747.09
2022-12-08T06:40:41.570Z,97735.25
2022-12-08T06:43:08.065Z,97743.34
2022-12-08T06:45:34.647Z,97743.03
2022-12-08T06:48:01.987Z,97744.72
2022-12-08T06:50:28.761Z,97742.72
2022-12-08T06:53:03.016Z,97748.53
2022-12-08T06:58:18.263Z,97749.38
2022-12-08T07:00:44.847Z,97748.56
2022-12-08T07:03:11.801Z,97750.63
2022-12-08T07:05:38.672Z,97747.56
2022-12-08T07:08:05.747Z,97753.00
2022-12-08T07:10:32.278Z,97748.56
2022-12-08T07:12:58.757Z,97750.63
2022-12-08T07:15:25.258Z,97755.41
2022-12-08T07:17:56.397Z,97753.22
2022-12-08T07:20:26.188Z,97749.75
2022-12-08T07:22:52.876Z,97750.41
2022-12-08T07:25:19.544Z,97754.56
2022-12-08T07:27:46.059Z,97758.22
2022-12-08T07:30:13.029Z,97754.16
2022-12-08T07:32:39.534Z,97757.81
2022-12-08T07:35:06.512Z,97753.06
2022-12-08T07:37:33.305Z,97755.84
2022-12-08T07:39:59.805Z,97757.94
2022-12-08T07:42:26.503Z,97748.88
2022-12-08T07:44:53.013Z,97755.03
2022-12-08T07:47:19.518Z,97758.16
2022-12-08T07:49:46.018Z,97752.66
2022-12-08T07:52:12.615Z,97746.78
2022-12-08T07:54:39.116Z,97754.09
2022-12-08T07:57:06.197Z,97740.03
2022-12-08T07:59:32.855Z,97748.06
2022-12-08T08:02:21.337Z,97741.91
2022-12-08T08:04:45.880Z,97739.06
2022-12-08T08:07:12.518Z,97741.69
2022-12-08T08:09:39.035Z,97746.28
2022-12-08T08:12:29.550Z,97741.81
2022-12-08T08:14:52.244Z,97740.25
2022-12-08T08:17:18.801Z,97737.44
2022-12-08T08:19:46.190Z,97743.16
2022-12-08T08:22:12.705Z,97734.09
2022-12-08T08:24:44.464Z,97729.19
2022-12-08T08:27:11.509Z,97729.81
2022-12-08T08:29:38.021Z,97743.03
2022-12-08T08:32:04.525Z,97732.19
2022-12-08T08:34:31.138Z,97724.53
2022-12-08T08:36:57.692Z,97735.03
2022-12-08T08:39:24.221Z,97735.97
2022-12-08T08:41:50.784Z,97725.97
2022-12-08T08:44:17.341Z,97734.88
2022-12-08T08:46:43.919Z,97735.28
2022-12-08T08:49:10.485Z,97734.81
2022-12-08T08:51:36.981Z,97734.50
2022-12-08T08:54:03.499Z,97732.72
2022-12-08T08:56:30.037Z,97736.88
2022-12-08T08:58:56.710Z,97732.66
2022-12-08T09:01:25.045Z,97727.22
2022-12-08T09:03:51.626Z,97725.84
2022-12-08T09:06:18.257Z,97728.44
2022-12-08T09:08:44.788Z,97728.50
2022-12-08T09:11:11.498Z,97728.53
2022-12-08T09:13:38.110Z,97732.38
2022-12-08T09:16:05.645Z,97725.16
2022-12-08T09:18:32.393Z,97721.03
2022-12-08T09:21:05.749Z,97721.41
2022-12-08T09:23:35.639Z,97723.91
2022-12-08T09:26:02.981Z,97715.41
2022-12-08T09:28:29.555Z,97705.94
2022-12-08T09:30:56.155Z,97711.50
2022-12-08T09:33:22.735Z,97704.06
2022-12-08T09:35:49.264Z,97720.19
2022-12-08T09:38:15.778Z,97708.53
2022-12-08T09:40:52.363Z,97716.03
2022-12-08T09:43:21.645Z,97706.78
2022-12-08T09:45:48.155Z,97709.16
2022-12-08T09:48:19.251Z,97705.13
2022-12-08T09:50:48.125Z,97705.13
2022-12-08T09:53:23.423Z,97702.63
2022-12-08T09:55:53.965Z,97700.19
2022-12-08T09:58:20.648Z,97690.44
2022-12-08T10:00:47.175Z,97695.78
2022-12-08T10:03:16.822Z,97687.38
2022-12-08T10:05:47.834Z,97684.19
2022-12-08T10:08:21.453Z,97687.97
2022-12-08T10:10:51.529Z,97682.22
2022-12-08T10:13:17.998Z,97677.97
2022-12-08T10:15:59.149Z,97674.81
2022-12-08T10:18:27.773Z,97672.63
2022-12-08T10:20:54.265Z,97665.63
2022-12-08T10:23:20.767Z,97666.53
2022-12-08T10:25:48.612Z,97663.94
2022-12-08T10:28:15.122Z,97661.19
2022-12-08T10:30:41.912Z,97666.78
2022-12-08T10:33:15.326Z,97660.88
2022-12-08T10:35:44.864Z,97652.03
2022-12-08T10:38:26.307Z,97652.69
2022-12-08T10:40:53.867Z,97646.38
2022-12-08T10:43:22.114Z,97652.06
2022-12-08T10:45:48.700Z,97644.94
2022-12-08T10:48:16.877Z,97647.81
2022-12-08T10:50:52.591Z,97641.75
2022-12-08T10:53:19.051Z,97639.00
2022-12-08T10:55:46.638Z,97635.00
2022-12-08T10:58:23.381Z,97627.50
2022-12-08T11:00:54.554Z,97621.66
2022-12-08T11:03:29.116Z,97618.75
2022-12-08T11:05:56.352Z,97616.16
2022-12-08T11:08:22.907Z,97607.50
2022-12-08T11:10:49.822Z,97611.66
2022-12-08T11:13:18.303Z,97601.56
2022-12-08T11:15:44.833Z,97602.53
2022-12-08T11:18:30.359Z,97595.66
2022-12-08T11:20:59.403Z,97587.22
2022-12-08T11:23:26.775Z,97588.44
2022-12-08T11:25:53.939Z,97583.19
2022-12-08T11:28:22.338Z,97583.06
2022-12-08T11:30:50.469Z,97583.91
2022-12-08T11:33:27.091Z,97573.41
2022-12-08T11:35:58.054Z,97571.06
2022-12-08T11:38:25.174Z,97572.31
2022-12-08T11:40:56.063Z,97580.75
2022-12-08T11:43:34.804Z,97568.97
2022-12-08T11:46:24.459Z,97563.59
2022-12-08T11:48:53.409Z,97564.31
2022-12-08T11:51:27.402Z,97556.44
2022-12-08T11:53:56.878Z,97561.16
2022-12-08T11:56:37.217Z,97560.44
2022-12-08T11:59:09.918Z,97559.50
2022-12-08T12:01:42.228Z,97558.78
2022-12-08T12:04:12.235Z,97558.38
2022-12-08T12:06:57.518Z,97558.75
2022-12-08T12:09:42.633Z,97557.97
2022-12-08T12:12:15.994Z,97556.97
2022-12-08T12:14:45.260Z,97554.22
2022-12-08T12:17:31.496Z,97544.84
2022-12-08T12:19:59.147Z,97550.50
2022-12-08T12:22:25.673Z,97549.88
2022-12-08T12:24:52.299Z,97544.78
2022-12-08T12:27:18.763Z,97543.13
2022-12-08T12:29:49.818Z,97541.09
2022-12-08T12:32:20.435Z,97537.72
2022-12-08T12:34:48.317Z,97535.66
2022-12-08T12:37:15.657Z,97536.00
2022-12-08T12:39:50.170Z,97532.22
2022-12-08T12:42:36.067Z,97525.38
2022-12-08T12:45:26.044Z,97530.47
2022-12-08T12:48:12.917Z,97524.06
2022-12-08T12:50:39.435Z,97513.31
2022-12-08T12:53:13.612Z,97514.25
2022-12-08T12:55:46.623Z,97513.22
2022-12-08T12:58:23.670Z,97502.41
2022-12-08T13:00:50.202Z,97498.09
2022-12-08T13:03:16.849Z,97502.53
2022-12-08T13:05:48.621Z,97501.53
2022-12-08T13:08:18.771Z,97502.91
2022-12-08T13:11:05.329Z,97506.28
2022-12-08T13:13:31.925Z,97500.13
2022-12-08T13:16:18.815Z,97499.81
2022-12-08T13:18:52.712Z,97493.31
2022-12-08T13:21:20.332Z,97483.69
2022-12-08T13:23:47.955Z,97493.03
2022-12-08T13:26:18.500Z,97501.03
2022-12-08T13:29:07.168Z,97501.16
2022-12-08T13:31:48.542Z,97497.28
2022-12-08T13:34:21.510Z,97496.56
2022-12-08T13:36:53.908Z,97496.91
2022-12-08T13:39:22.121Z,97496.97
2022-12-08T13:41:51.768Z,97495.19
2022-12-08T13:47:33.461Z,97491.34
2022-12-08T13:58:40.054Z,97490.19
2022-12-08T14:01:06.917Z,97490.19
2022-12-08T14:04:04.363Z,97491.78
2022-12-08T14:06:31.655Z,97484.06
2022-12-08T14:09:04.987Z,97493.69
2022-12-08T14:11:36.490Z,97490.91
2022-12-08T14:14:07.910Z,97489.75
2022-12-08T14:16:38.932Z,97486.50
2022-12-08T14:19:31.865Z,97491.19
2022-12-08T14:21:58.360Z,97485.75
2022-12-08T14:24:25.391Z,97486.63
2022-12-08T14:26:55.947Z,97491.44
2022-12-08T14:29:30.469Z,97493.25
2022-12-08T14:31:57.672Z,97486.38
2022-12-08T14:34:24.193Z,97489.56
2022-12-08T14:36:50.692Z,97487.78
2022-12-08T14:39:17.665Z,97490.13
2022-12-08T14:41:58.400Z,97491.28
2022-12-08T14:44:24.971Z,97493.31
2022-12-08T14:47:08.281Z,97492.63
2022-12-08T14:49:35.509Z,97493.63
2022-12-08T14:52:02.137Z,97492.94
2022-12-08T14:54:29.511Z,97494.19
2022-12-08T14:56:56.276Z,97498.63
2022-12-08T14:59:27.177Z,97492.84
2022-12-08T15:01:55.964Z,97490.06
2022-12-08T15:04:25.989Z,97497.38
2022-12-08T15:06:54.470Z,97493.09
2022-12-08T15:09:30.207Z,97494.34
2022-12-08T15:12:03.500Z,97490.63
2022-12-08T15:14:34.496Z,97491.19
2022-12-08T15:17:01.031Z,97488.13
2022-12-08T15:19:31.450Z,97491.06
2022-12-08T15:21:59.487Z,97493.81
2022-12-08T15:24:27.081Z,97484.56
2022-12-08T15:26:53.723Z,97484.16
2022-12-08T15:29:20.735Z,97483.50
2022-12-08T15:31:47.532Z,97482.91
2022-12-08T15:34:14.059Z,97493.25
2022-12-08T15:36:45.942Z,97484.69
2022-12-08T15:39:25.142Z,97484.31
2022-12-08T15:41:51.732Z,97481.69
2022-12-08T15:44:18.214Z,97474.94
2022-12-08T15:46:44.918Z,97481.41
2022-12-08T15:49:17.017Z,97485.13
2022-12-08T15:51:43.596Z,97483.31
2022-12-08T15:54:13.357Z,97480.59
2022-12-08T15:57:10.452Z,97484.19
2022-12-08T15:59:30.909Z,97480.88
2022-12-08T16:01:57.621Z,97482.53
2022-12-08T16:07:27.721Z,97472.72
2022-12-08T16:09:54.685Z,97464.44
2022-12-08T16:13:48.154Z,97463.22
2022-12-08T16:16:01.842Z,97467.06
2022-12-08T16:18:23.999Z,97466.66
2022-12-08T16:21:16.620Z,97460.03
2022-12-08T16:23:45.203Z,97455.50
2022-12-08T16:29:02.336Z,97455.22
2022-12-08T16:31:29.024Z,97456.19
2022-12-08T16:33:55.647Z,97458.28
2022-12-08T16:36:22.172Z,97455.38
2022-12-08T16:38:48.698Z,97456.75
2022-12-08T16:41:34.272Z,97455.09
2022-12-08T16:44:04.238Z,97447.38
2022-12-08T16:46:30.918Z,97454.13
2022-12-08T16:48:58.986Z,97455.38
2022-12-08T16:51:27.322Z,97455.91
2022-12-08T16:53:54.814Z,97442.00
2022-12-08T16:56:25.024Z,97444.06
2022-12-08T16:58:55.412Z,97440.75
2022-12-08T17:01:23.647Z,97439.53
2022-12-08T17:04:14.230Z,97445.59
2022-12-08T17:06:36.858Z,97447.81
2022-12-08T17:09:03.563Z,97446.00
2022-12-08T17:11:37.443Z,97451.91
2022-12-08T17:14:09.244Z,97454.41
2022-12-08T17:16:35.930Z,97455.50
2022-12-08T17:19:02.526Z,97454.66
2022-12-08T17:21:29.061Z,97450.81
2022-12-08T17:23:55.647Z,97458.66
2022-12-08T17:26:22.184Z,97452.59
2022-12-08T17:29:00.505Z,97453.97
2022-12-08T17:31:30.257Z,97445.69
2022-12-08T17:34:04.180Z,97453.13
2022-12-08T17:36:30.699Z,97454.63
2022-12-08T17:38:58.873Z,97450.41
2022-12-08T17:41:25.393Z,97456.31
2022-12-08T17:43:51.910Z,97455.38
2022-12-08T17:46:18.952Z,97456.16
2022-12-08T17:48:45.519Z,97457.41
2022-12-08T17:51:12.044Z,97460.03
2022-12-08T17:53:40.682Z,97451.50
2022-12-08T17:56:08.494Z,97450.38
2022-12-08T17:58:34.976Z,97455.06
2022-12-08T18:01:01.550Z,97456.44
2022-12-08T18:03:28.080Z,97457.53
2022-12-08T18:05:54.572Z,97463.44
2022-12-08T18:08:21.095Z,97463.44
2022-12-08T18:10:47.608Z,97463.84
2022-12-08T18:13:14.172Z,97463.56
2022-12-08T18:15:40.782Z,97466.75
2022-12-08T18:18:07.566Z,97474.19
2022-12-08T18:20:34.936Z,97463.56
2022-12-08T18:23:01.608Z,97465.75
2022-12-08T18:25:28.211Z,97460.69
2022-12-08T18:27:54.763Z,97455.84
2022-12-08T18:30:21.434Z,97454.56
2022-12-08T18:32:49.872Z,97457.63
2022-12-08T18:35:19.452Z,97458.97
2022-12-08T18:37:47.051Z,97457.69
2022-12-08T18:40:13.805Z,97442.81
2022-12-08T18:42:40.320Z,97447.75
2022-12-08T18:45:07.260Z,97447.75
2022-12-08T18:47:34.416Z,97447.34
2022-12-08T18:50:01.067Z,97438.25
2022-12-08T18:52:32.024Z,97444.69
2022-12-08T18:55:06.192Z,97445.25
2022-12-08T18:57:33.297Z,97448.53
2022-12-08T18:59:59.904Z,97448.00
2022-12-08T19:02:26.432Z,97446.41
2022-12-08T19:04:55.055Z,97442.97
2022-12-08T19:07:21.597Z,97438.34
2022-12-08T19:09:48.193Z,97428.59
2022-12-08T19:12:14.824Z,97431.16
2022-12-08T19:14:41.324Z,97430.63
2022-12-08T19:17:07.949Z,97431.31
2022-12-08T19:19:34.725Z,97430.84
2022-12-08T19:22:01.238Z,97426.44
2022-12-08T19:24:27.854Z,97426.31
2022-12-08T19:26:54.437Z,97429.69
2022-12-08T19:29:20.956Z,97428.44
2022-12-08T19:31:47.580Z,97423.72
2022-12-08T19:34:14.207Z,97423.63
2022-12-08T19:36:43.077Z,97419.38
2022-12-08T19:39:35.046Z,97423.81
2022-12-08T19:42:20.242Z,97420.59
2022-12-08T19:44:52.641Z,97422.03
2022-12-08T19:47:23.438Z,97423.19
2022-12-08T19:49:50.137Z,97428.44
2022-12-08T19:52:16.678Z,97429.78
2022-12-08T19:54:43.231Z,97426.59
2022-12-08T19:57:11.588Z,97430.28
2022-12-08T19:59:38.648Z,97421.31
2022-12-08T20:02:05.531Z,97417.34
2022-12-08T20:04:32.151Z,97413.28
2022-12-08T20:06:58.814Z,97417.28
2022-12-08T20:09:25.521Z,97411.03
2022-12-08T20:11:54.666Z,97407.13
2022-12-08T20:14:22.257Z,97405.97
2022-12-08T20:16:49.190Z,97409.59
2022-12-08T20:19:15.821Z,97412.16
2022-12-08T20:21:42.436Z,97413.63
2022-12-08T20:24:09.072Z,97417.16
2022-12-08T20:26:35.590Z,97418.59
2022-12-08T20:29:04.631Z,97415.91
2022-12-08T20:31:31.924Z,97424.78
2022-12-08T20:33:58.655Z,97424.19
2022-12-08T20:36:25.480Z,97420.28
2022-12-08T20:38:52.418Z,97415.66
2022-12-08T20:41:19.470Z,97419.47
2022-12-08T20:43:46.622Z,97412.97
2022-12-08T20:46:14.115Z,97421.72
2022-12-08T20:48:40.916Z,97424.69
2022-12-08T20:51:07.457Z,97428.72
2022-12-08T20:53:34.188Z,97423.28
2022-12-08T20:56:00.839Z,97422.09
2022-12-08T20:58:27.335Z,97423.16
2022-12-08T21:00:54.129Z,97419.38
2022-12-08T21:03:20.894Z,97426.25
2022-12-08T21:05:50.992Z,97416.84
2022-12-08T21:08:18.113Z,97422.56
2022-12-08T21:10:44.833Z,97419.97
2022-12-08T21:13:11.367Z,97420.28
2022-12-08T21:15:38.216Z,97421.97
2022-12-08T21:18:04.844Z,97417.94
2022-12-08T21:20:31.531Z,97418.66
2022-12-08T21:22:58.183Z,97411.91
2022-12-08T21:25:24.926Z,97419.16
2022-12-08T21:27:51.664Z,97416.91
2022-12-08T21:30:18.190Z,97416.53
2022-12-08T21:32:45.366Z,97413.22
2022-12-08T21:35:12.149Z,97415.84
2022-12-08T21:37:38.774Z,97415.84
2022-12-08T21:40:06.245Z,97405.06
2022-12-08T21:42:45.264Z,97409.69
2022-12-08T21:45:13.201Z,97406.34
2022-12-08T21:47:39.988Z,97412.25
2022-12-08T21:50:07.644Z,97408.25
2022-12-08T21:52:37.987Z,97408.94
2022-12-08T21:55:04.938Z,97410.13
2022-12-08T21:57:31.622Z,97415.91
2022-12-08T21:59:58.301Z,97415.66
2022-12-08T22:02:25.031Z,97410.91
2022-12-08T22:04:52.825Z,97411.25
2022-12-08T22:07:20.019Z,97412.78
2022-12-08T22:09:47.357Z,97406.63
2022-12-08T22:12:14.271Z,97413.59
2022-12-08T22:14:40.863Z,97410.03
2022-12-08T22:17:07.833Z,97405.56
2022-12-08T22:19:34.796Z,97417.13
2022-12-08T22:22:01.599Z,97417.47
2022-12-08T22:24:31.346Z,97417.13
2022-12-08T22:26:58.025Z,97415.00
2022-12-08T22:29:24.643Z,97416.44
2022-12-08T22:31:51.478Z,97415.94
2022-12-08T22:34:18.172Z,97406.03
2022-12-08T22:36:44.847Z,97404.84
2022-12-08T22:39:12.675Z,97403.53
2022-12-08T22:41:39.435Z,97397.59
2022-12-08T22:44:06.514Z,97408.22
2022-12-08T22:46:33.319Z,97402.22
2022-12-08T22:49:00.127Z,97408.25
2022-12-08T22:51:26.765Z,97392.97
2022-12-08T22:53:53.385Z,97386.72
2022-12-08T22:56:20.036Z,97388.56
2022-12-08T22:58:46.917Z,97385.47
2022-12-08T23:01:24.097Z,97396.78
2022-12-08T23:03:50.991Z,97385.66
2022-12-08T23:06:17.971Z,97390.59
2022-12-08T23:08:58.543Z,97384.09
2022-12-08T23:11:29.717Z,97387.47
2022-12-08T23:13:57.711Z,97382.75
2022-12-08T23:16:24.495Z,97379.75
2022-12-08T23:18:51.073Z,97383.03
2022-12-08T23:21:18.298Z,97376.47
2022-12-08T23:23:45.126Z,97379.22
2022-12-08T23:26:14.035Z,97375.34
2022-12-08T23:28:40.624Z,97373.88
2022-12-08T23:31:07.776Z,97366.09
2022-12-08T23:33:34.265Z,97364.94
2022-12-08T23:36:01.361Z,97369.19
2022-12-08T23:38:27.874Z,97370.13
2022-12-08T23:40:54.522Z,97363.13
2022-12-08T23:43:21.143Z,97358.75
2022-12-08T23:45:50.137Z,97355.34
2022-12-08T23:48:17.137Z,97339.94
2022-12-08T23:50:43.872Z,97352.47
2022-12-08T23:53:10.529Z,97332.22
2022-12-08T23:55:37.135Z,97329.88
2022-12-08T23:58:03.828Z,97337.09
